Time;durP1;ratioP1;P1;durP2;ratioP2;P2;SDS_P1;SDS_P2;PMS_P1;PMS_P2;Temp;Humidity;BMP_temperature;BMP_pressure;BME280_temperature;BME280_humidity;BME280_pressure;Samples;Min_cycle;Max_cycle;Signal;HPM_P1;HPM_P2
2022/05/05 00:01:49;;;;;;;13.50;10.50;;;;;;;9.64;65.87;96885.91;107697;1268;28109;-80
2022/05/05 00:04:22;;;;;;;15.60;10.60;;;;;;;9.65;66.15;96887.13;107549;1268;43824;-80
2022/05/05 00:06:53;;;;;;;15.80;11.50;;;;;;;9.61;66.09;96884.23;107544;1268;43359;-80
2022/05/05 00:09:24;;;;;;;16.50;13.40;;;;;;;9.60;66.55;96887.09;107534;1270;41320;-80
2022/05/05 00:14:43;;;;;;;14.50;11.30;;;;;;;9.76;66.65;96883.44;107588;1268;41682;-80
2022/05/05 00:17:14;;;;;;;15.10;11.80;;;;;;;9.80;66.73;96882.14;107582;1269;38472;-80
2022/05/05 00:19:45;;;;;;;13.90;11.60;;;;;;;9.82;67.11;96884.57;107656;1268;40220;-80
2022/05/05 00:22:16;;;;;;;14.00;12.50;;;;;;;9.84;66.95;96882.98;107751;1269;28972;-80
2022/05/05 00:24:47;;;;;;;15.60;12.80;;;;;;;9.89;67.60;96880.09;107527;1269;38476;-80
2022/05/05 00:27:18;;;;;;;13.40;10.90;;;;;;;9.95;67.16;96881.87;107684;1268;41108;-80
2022/05/05 00:29:49;;;;;;;16.80;11.90;;;;;;;9.98;67.47;96882.65;107617;1268;44417;-80
2022/05/05 00:32:20;;;;;;;17.80;14.10;;;;;;;9.97;67.72;96879.68;107653;1268;31326;-79
2022/05/05 00:34:51;;;;;;;14.30;12.80;;;;;;;9.98;67.95;96877.57;107534;1268;53428;-80
2022/05/05 00:37:20;;;;;;;;;;;;;;;9.98;68.07;96879.79;107624;1268;35416;-80
2022/05/05 00:39:51;;;;;;;15.10;12.40;;;;;;;9.94;67.94;96883.30;107586;1268;32012;-79
2022/05/05 00:42:22;;;;;;;16.00;13.40;;;;;;;9.96;68.23;96882.65;107574;1268;39901;-80
2022/05/05 00:44:52;;;;;;;15.40;13.50;;;;;;;9.96;68.17;96882.29;107570;1268;40905;-80
2022/05/05 00:47:23;;;;;;;17.20;13.40;;;;;;;9.98;69.05;96879.06;107542;1268;46486;-80
2022/05/05 00:49:54;;;;;;;15.10;12.40;;;;;;;10.08;69.34;96878.09;107551;1268;34237;-80
2022/05/05 00:52:26;;;;;;;17.30;13.90;;;;;;;10.10;68.71;96877.55;107602;1268;39427;-80
2022/05/05 00:54:59;;;;;;;15.30;12.90;;;;;;;10.07;68.62;96876.60;107564;1268;30472;-80
2022/05/05 00:57:31;;;;;;;14.30;12.70;;;;;;;10.08;68.94;96873.53;107602;1268;39584;-80
2022/05/05 01:00:03;;;;;;;15.90;14.10;;;;;;;10.15;69.20;96877.23;107485;1270;36642;-80
2022/05/05 01:02:35;;;;;;;15.00;12.70;;;;;;;10.21;69.23;96879.13;107617;1268;32149;-80
2022/05/05 01:05:07;;;;;;;15.30;12.90;;;;;;;10.21;69.04;96879.09;107558;1268;44817;-80
2022/05/05 01:07:38;;;;;;;14.60;12.50;;;;;;;10.23;69.09;96878.98;107565;1268;45301;-80
2022/05/05 01:10:10;;;;;;;16.60;13.50;;;;;;;10.23;69.09;96877.61;107581;1268;43099;-80
2022/05/05 01:12:41;;;;;;;15.80;13.00;;;;;;;10.20;68.92;96879.34;107552;1268;40694;-81
2022/05/05 01:15:13;;;;;;;15.20;13.30;;;;;;;10.16;69.02;96874.80;107555;1269;44444;-80
2022/05/05 01:17:44;;;;;;;14.10;12.60;;;;;;;10.13;68.89;96871.83;107713;1268;34996;-80
2022/05/05 01:20:17;;;;;;;15.20;12.20;;;;;;;10.05;68.84;96871.58;107551;1269;31675;-80
2022/05/05 01:22:48;;;;;;;13.00;11.30;;;;;;;9.97;69.04;96872.55;107685;1268;39908;-80
2022/05/05 01:28:11;;;;;;;12.90;11.30;;;;;;;9.94;69.42;96868.04;107509;1270;46467;-81
2022/05/05 01:30:44;;;;;;;12.70;11.00;;;;;;;9.91;69.63;96867.41;107524;1270;33697;-80
2022/05/05 01:33:16;;;;;;;12.90;11.30;;;;;;;9.91;70.16;96867.58;107532;1268;40820;-80
2022/05/05 01:35:49;;;;;;;17.70;11.40;;;;;;;10.01;70.36;96864.55;107601;1270;37154;-80
2022/05/05 01:38:23;;;;;;;12.00;10.70;;;;;;;10.07;70.81;96863.63;107640;1269;51069;-79
2022/05/05 01:40:53;;;;;;;13.00;11.30;;;;;;;10.17;70.87;96869.53;107576;1271;42150;-80
2022/05/05 01:43:24;;;;;;;13.40;11.20;;;;;;;10.25;70.75;96869.17;107534;1270;39904;-80
2022/05/05 01:45:55;;;;;;;14.10;10.30;;;;;;;10.33;70.77;96870.02;107605;1270;38486;-80
2022/05/05 01:48:26;;;;;;;12.50;10.50;;;;;;;10.37;70.87;96870.25;107602;1270;47933;-80
2022/05/05 01:50:57;;;;;;;11.90;10.30;;;;;;;10.41;70.66;96871.61;107547;1268;47772;-80
2022/05/05 01:53:28;;;;;;;15.20;10.60;;;;;;;10.46;70.96;96872.62;107547;1271;44119;-80
2022/05/05 01:55:59;;;;;;;13.90;11.30;;;;;;;10.50;70.43;96872.39;107552;1268;44373;-80
2022/05/05 01:58:30;;;;;;;13.10;10.90;;;;;;;10.49;70.26;96871.91;107571;1268;33288;-80
2022/05/05 02:01:00;;;;;;;13.10;10.60;;;;;;;10.46;70.22;96873.58;107554;1270;38364;-80
2022/05/05 02:03:31;;;;;;;12.20;10.60;;;;;;;10.43;70.11;96873.31;107537;1270;40975;-80
2022/05/05 02:06:02;;;;;;;13.70;11.90;;;;;;;10.36;70.05;96872.00;107543;1269;49711;-80
2022/05/05 02:08:32;;;;;;;16.20;12.00;;;;;;;10.31;70.26;96871.76;107549;1270;40667;-80
2022/05/05 02:11:03;;;;;;;11.60;10.40;;;;;;;10.23;70.54;96868.17;107614;1270;29719;-80
2022/05/05 02:13:35;;;;;;;10.80;9.50;;;;;;;10.33;71.06;96870.75;107514;1270;44864;-80
2022/05/05 02:16:06;;;;;;;10.30;9.10;;;;;;;10.49;71.52;96870.31;107566;1268;40645;-80
2022/05/05 02:18:37;;;;;;;10.90;9.10;;;;;;;10.60;71.22;96870.39;107598;1268;40878;-80
2022/05/05 02:21:08;;;;;;;10.90;9.60;;;;;;;10.62;71.66;96869.84;107502;1270;40271;-81
2022/05/05 02:23:39;;;;;;;10.10;9.10;;;;;;;10.75;71.88;96869.43;107435;1270;46945;-80
2022/05/05 02:26:10;;;;;;;10.90;9.80;;;;;;;10.79;72.05;96868.98;107555;1270;38652;-80
2022/05/05 02:28:41;;;;;;;10.10;9.00;;;;;;;10.82;71.75;96864.45;107566;1268;43445;-80
2022/05/05 02:31:11;;;;;;;10.80;9.60;;;;;;;10.85;71.79;96864.45;107539;1270;43003;-80
2022/05/05 02:33:42;;;;;;;11.60;9.90;;;;;;;10.87;71.81;96865.93;107575;1268;32806;-80
2022/05/05 02:39:01;;;;;;;12.40;10.50;;;;;;;10.84;71.10;96867.95;107521;1268;44603;-80
2022/05/05 02:41:32;;;;;;;12.50;10.80;;;;;;;10.79;71.20;96873.80;107573;1270;38969;-80
2022/05/05 02:44:04;;;;;;;13.50;10.30;;;;;;;10.76;71.29;96877.11;107489;1270;33827;-80
2022/05/05 02:46:35;;;;;;;12.60;10.20;;;;;;;10.70;71.09;96876.40;107598;1269;41213;-80
2022/05/05 02:49:06;;;;;;;15.40;10.70;;;;;;;10.69;71.04;96877.13;107572;1268;40916;-80
2022/05/05 02:51:37;;;;;;;12.80;10.40;;;;;;;10.69;71.13;96874.58;107489;1269;37781;-80
2022/05/05 02:56:57;;;;;;;11.90;9.80;;;;;;;10.73;71.58;96879.09;107623;1271;45490;-81
2022/05/05 02:59:27;;;;;;;12.80;10.50;;;;;;;10.73;71.70;96881.58;107498;1270;42648;-80
2022/05/05 03:01:56;;;;;;;;;;;;;;;10.73;71.44;96886.35;107622;1268;31760;-80
2022/05/05 03:04:28;;;;;;;11.80;9.80;;;;;;;10.73;71.50;96885.83;107464;1270;35757;-80
2022/05/05 03:06:58;;;;;;;12.00;10.70;;;;;;;10.74;71.44;96885.98;107537;1270;38472;-80
2022/05/05 03:09:29;;;;;;;12.30;10.90;;;;;;;10.75;71.57;96884.44;107559;1270;36690;-80
2022/05/05 03:12:00;;;;;;;11.60;10.30;;;;;;;10.78;71.61;96887.17;107476;1270;44876;-81
2022/05/05 03:14:31;;;;;;;12.30;10.30;;;;;;;10.81;71.70;96889.64;107562;1271;35461;-80
2022/05/05 03:17:02;;;;;;;12.10;10.20;;;;;;;10.84;71.65;96892.63;107554;1270;52058;-80
2022/05/05 03:19:32;;;;;;;11.50;9.20;;;;;;;10.86;71.74;96896.59;107563;1269;40559;-81
2022/05/05 03:22:01;;;;;;;;;;;;;;;10.89;71.79;96895.66;107596;1268;37381;-80
2022/05/05 03:24:32;;;;;;;12.40;10.10;;;;;;;10.94;71.78;96897.60;107515;1270;38379;-80
2022/05/05 03:27:04;;;;;;;12.10;9.80;;;;;;;10.99;72.07;96895.73;107523;1270;49675;-80
2022/05/05 03:29:35;;;;;;;11.10;10.00;;;;;;;11.06;72.18;96895.63;107588;1270;30741;-80
2022/05/05 03:32:07;;;;;;;11.80;9.60;;;;;;;11.09;71.85;96894.33;107606;1268;40136;-80
2022/05/05 03:34:38;;;;;;;11.50;9.60;;;;;;;11.13;71.78;96898.26;107560;1270;44003;-80
2022/05/05 03:37:08;;;;;;;13.00;10.50;;;;;;;11.16;71.73;96895.73;107539;1270;39541;-80
2022/05/05 03:39:39;;;;;;;10.40;9.30;;;;;;;11.19;71.78;96897.52;107593;1268;39010;-80
2022/05/05 03:42:10;;;;;;;11.80;10.10;;;;;;;11.22;71.92;96897.34;107492;1270;37654;-80
2022/05/05 03:44:42;;;;;;;10.80;9.50;;;;;;;11.24;71.67;96901.14;107592;1268;37141;-80
2022/05/05 03:47:13;;;;;;;11.80;9.60;;;;;;;11.25;71.63;96907.23;107572;1268;38627;-80
2022/05/05 03:49:44;;;;;;;11.50;9.60;;;;;;;11.24;71.75;96904.02;107619;1271;31121;-80
2022/05/05 03:52:15;;;;;;;10.80;9.50;;;;;;;11.29;71.95;96905.27;107631;1268;35295;-80
2022/05/05 03:54:46;;;;;;;11.70;8.40;;;;;;;11.36;71.90;96905.91;107699;1271;32987;-80
2022/05/05 03:57:16;;;;;;;10.40;9.10;;;;;;;11.40;72.19;96906.58;107638;1268;31666;-80
2022/05/05 03:59:47;;;;;;;10.00;8.80;;;;;;;11.43;72.00;96911.23;107590;1270;34732;-80
2022/05/05 04:02:18;;;;;;;11.10;9.50;;;;;;;11.46;71.83;96906.54;107640;1270;39206;-80
2022/05/05 04:04:49;;;;;;;10.10;9.00;;;;;;;11.51;71.71;96909.77;107628;1269;40903;-80
2022/05/05 04:07:20;;;;;;;11.60;9.80;;;;;;;11.54;71.48;96910.35;107543;1270;33612;-79
2022/05/05 04:09:53;;;;;;;11.10;10.00;;;;;;;11.56;71.33;96915.23;107563;1270;42011;-79
2022/05/05 04:12:24;;;;;;;11.30;9.60;;;;;;;11.58;71.31;96919.46;107501;1270;48254;-80
2022/05/05 04:14:55;;;;;;;10.70;9.60;;;;;;;11.58;71.19;96918.67;107559;1270;33771;-80
2022/05/05 04:17:26;;;;;;;11.20;9.90;;;;;;;11.56;71.02;96924.16;107499;1270;44471;-80
2022/05/05 04:19:57;;;;;;;10.60;9.50;;;;;;;11.54;71.05;96925.60;107583;1270;42867;-81
2022/05/05 04:22:30;;;;;;;11.30;9.00;;;;;;;11.52;71.05;96928.04;107530;1270;35980;-80
2022/05/05 04:25:01;;;;;;;11.40;10.10;;;;;;;11.55;71.21;96932.02;107566;1270;32555;-80
2022/05/05 04:27:33;;;;;;;11.50;9.70;;;;;;;11.64;71.27;96937.10;107578;1268;41870;-80
2022/05/05 04:30:04;;;;;;;11.20;9.20;;;;;;;11.75;71.32;96935.64;107624;1268;34748;-80
2022/05/05 04:32:36;;;;;;;11.30;9.60;;;;;;;11.84;71.31;96932.47;107489;1268;44669;-80
2022/05/05 04:35:08;;;;;;;11.00;9.70;;;;;;;11.92;71.11;96932.88;107581;1268;33994;-81
2022/05/05 04:37:40;;;;;;;13.80;9.20;;;;;;;11.96;70.93;96932.90;107651;1268;29678;-80
2022/05/05 04:40:12;;;;;;;14.40;10.70;;;;;;;12.17;70.97;96931.34;107549;1271;37146;-80
2022/05/05 04:42:43;;;;;;;10.30;8.70;;;;;;;13.54;70.75;96931.18;107569;1270;39662;-80
2022/05/05 04:45:14;;;;;;;9.10;8.20;;;;;;;15.62;69.26;96928.08;107605;1271;46191;-81
2022/05/05 04:47:45;;;;;;;8.60;7.70;;;;;;;17.70;66.32;96927.36;107524;1268;41168;-80
2022/05/05 04:50:16;;;;;;;9.10;7.60;;;;;;;18.94;59.15;96924.64;107613;1270;42719;-81
2022/05/05 04:52:47;;;;;;;7.70;7.00;;;;;;;19.45;56.70;96929.08;107614;1271;32375;-81
2022/05/05 04:55:18;;;;;;;6.90;6.20;;;;;;;19.92;56.14;96928.31;107651;1270;43618;-81
2022/05/05 04:57:49;;;;;;;9.60;7.80;;;;;;;20.47;51.77;96925.04;107650;1268;33311;-81
2022/05/05 05:00:22;;;;;;;8.70;7.40;;;;;;;20.23;50.07;96933.56;107596;1270;43855;-76
2022/05/05 05:02:53;;;;;;;8.20;7.30;;;;;;;20.66;51.67;96933.95;107574;1268;41583;-81
2022/05/05 05:05:31;;;;;;;7.90;7.10;;;;;;;21.62;49.82;96930.46;107508;1269;42551;-81
2022/05/05 05:08:02;;;;;;;7.70;6.90;;;;;;;21.88;47.30;96934.14;107542;1268;57823;-81
2022/05/05 05:10:32;;;;;;;8.10;7.30;;;;;;;21.85;46.54;96936.67;107550;1271;43447;-81
2022/05/05 05:13:03;;;;;;;7.50;6.70;;;;;;;22.11;47.02;96936.86;107627;1269;41152;-81
2022/05/05 05:15:34;;;;;;;8.80;7.50;;;;;;;22.65;45.29;96935.50;107524;1270;41628;-81
2022/05/05 05:18:05;;;;;;;9.20;8.30;;;;;;;22.67;45.33;96938.41;107594;1271;33007;-81
2022/05/05 05:20:36;;;;;;;9.20;7.30;;;;;;;22.40;45.58;96942.91;107599;1268;39641;-81
2022/05/05 05:23:07;;;;;;;8.00;7.20;;;;;;;22.98;45.65;96937.89;107566;1268;34347;-81
2022/05/05 05:25:38;;;;;;;7.60;6.80;;;;;;;23.38;44.80;96935.23;107607;1270;44811;-81
2022/05/05 05:28:11;;;;;;;7.90;6.70;;;;;;;24.17;43.52;96931.16;107542;1268;41758;-81
2022/05/05 05:30:42;;;;;;;7.10;6.40;;;;;;;24.79;41.86;96932.20;107552;1270;31327;-81
2022/05/05 05:33:13;;;;;;;7.50;6.60;;;;;;;25.07;40.11;96930.20;107474;1270;49019;-81
2022/05/05 05:35:45;;;;;;;7.20;6.20;;;;;;;25.42;40.88;96927.60;107460;1270;45758;-82
2022/05/05 05:38:18;;;;;;;8.10;6.40;;;;;;;26.35;39.90;96929.38;107518;1270;42242;-81
2022/05/05 05:40:49;;;;;;;6.50;5.80;;;;;;;26.93;37.73;96929.28;107604;1269;54252;-81
2022/05/05 05:43:20;;;;;;;7.60;6.00;;;;;;;26.74;36.58;96935.66;107635;1270;32917;-81
2022/05/05 05:45:51;;;;;;;6.70;6.10;;;;;;;26.18;36.23;96934.05;107583;1270;34420;-81
2022/05/05 05:48:22;;;;;;;7.00;5.60;;;;;;;25.07;37.65;96932.75;107596;1268;36790;-81
2022/05/05 05:50:53;;;;;;;6.00;5.40;;;;;;;25.11;38.02;96936.06;107497;1270;47870;-81
2022/05/05 05:53:24;;;;;;;6.50;5.90;;;;;;;24.32;37.83;96935.16;107607;1270;44221;-80
2022/05/05 05:55:55;;;;;;;7.50;6.70;;;;;;;22.71;39.04;96940.67;107558;1270;33999;-80
2022/05/05 05:58:26;;;;;;;8.20;7.40;;;;;;;21.41;41.07;96937.08;107577;1271;40992;-81
2022/05/05 06:00:57;;;;;;;8.00;7.20;;;;;;;20.81;42.65;96940.39;107543;1270;54913;-80
2022/05/05 06:06:16;;;;;;;8.70;7.60;;;;;;;19.89;45.19;96943.44;107623;1268;46267;-81
2022/05/05 06:08:48;;;;;;;7.90;6.70;;;;;;;20.47;45.39;96939.80;107592;1271;35878;-81
2022/05/05 06:11:21;;;;;;;8.80;6.40;;;;;;;20.81;44.82;96943.69;107616;1270;42391;-81
2022/05/05 06:13:52;;;;;;;7.40;6.30;;;;;;;20.90;44.61;96943.45;107598;1268;44494;-80
2022/05/05 06:16:23;;;;;;;7.00;6.30;;;;;;;21.66;44.67;96939.96;107622;1271;30778;-81
2022/05/05 06:18:54;;;;;;;8.20;5.60;;;;;;;23.36;42.71;96944.32;107578;1268;41767;-81
2022/05/05 06:21:25;;;;;;;7.30;5.50;;;;;;;24.37;41.13;96941.59;107572;1270;41230;-81
2022/05/05 06:23:56;;;;;;;5.50;5.00;;;;;;;25.94;39.49;96938.82;107525;1270;43823;-82
2022/05/05 06:26:28;;;;;;;5.60;5.00;;;;;;;27.10;37.35;96939.36;107584;1270;29949;-82
2022/05/05 06:28:59;;;;;;;4.90;4.40;;;;;;;27.82;35.73;96935.72;107568;1271;33061;-81
2022/05/05 06:31:29;;;;;;;5.20;4.70;;;;;;;28.40;35.01;96934.27;107592;1271;40757;-81
2022/05/05 06:34:00;;;;;;;4.90;4.40;;;;;;;28.89;33.55;96933.98;107552;1268;37451;-81
2022/05/05 06:36:31;;;;;;;4.70;4.30;;;;;;;29.41;33.40;96932.61;107563;1268;38838;-82
2022/05/05 06:39:02;;;;;;;4.80;4.40;;;;;;;29.53;32.10;96933.92;107574;1269;40305;-82
2022/05/05 06:41:34;;;;;;;4.60;4.00;;;;;;;29.76;32.09;96938.23;107587;1268;49465;-82
2022/05/05 06:44:06;;;;;;;4.50;4.10;;;;;;;30.28;32.01;96938.88;107581;1269;32645;-82
2022/05/05 06:46:38;;;;;;;3.70;3.30;;;;;;;30.75;30.18;96944.07;107595;1268;35567;-82
2022/05/05 06:49:09;;;;;;;4.00;3.70;;;;;;;30.57;30.29;96941.60;107587;1271;48234;-82
2022/05/05 06:51:40;;;;;;;4.50;3.70;;;;;;;30.42;29.55;96939.12;107584;1268;36705;-82
2022/05/05 06:54:11;;;;;;;4.30;3.60;;;;;;;30.29;29.59;96944.27;107581;1268;38037;-82
2022/05/05 06:56:42;;;;;;;4.80;3.60;;;;;;;30.35;29.42;96949.71;107603;1268;47934;-83
2022/05/05 06:59:13;;;;;;;4.80;3.40;;;;;;;30.23;28.24;96948.59;107566;1269;39943;-83
2022/05/05 07:01:53;;;;;;;3.50;3.20;;;;;;;29.73;28.51;96951.98;107596;1268;34364;-83
2022/05/05 07:07:14;;;;;;;3.10;2.80;;;;;;;29.98;28.59;96954.56;107539;1268;50835;-82
2022/05/05 07:12:36;;;;;;;3.30;3.00;;;;;;;30.82;27.50;96951.77;107573;1268;39052;-83
2022/05/05 07:15:08;;;;;;;3.50;3.20;;;;;;;30.36;28.11;96953.07;107540;1268;38398;-82
2022/05/05 07:17:39;;;;;;;4.20;3.20;;;;;;;31.15;28.16;96956.38;107569;1268;59388;-82
2022/05/05 07:20:12;;;;;;;3.40;3.00;;;;;;;31.33;27.32;96960.30;107661;1268;35346;-82
2022/05/05 07:22:43;;;;;;;3.30;2.70;;;;;;;31.24;26.43;96960.20;107533;1271;40982;-81
2022/05/05 07:25:14;;;;;;;4.30;3.20;;;;;;;31.10;26.54;96960.23;107557;1271;36941;-81
2022/05/05 07:27:45;;;;;;;3.50;3.10;;;;;;;30.53;27.15;96958.13;107625;1268;33410;-82
2022/05/05 07:30:17;;;;;;;3.00;2.80;;;;;;;31.42;27.60;96959.39;107544;1270;32913;-82
2022/05/05 07:32:48;;;;;;;3.00;2.70;;;;;;;32.42;27.20;96957.02;107625;1270;39080;-83
2022/05/05 07:35:19;;;;;;;3.20;2.90;;;;;;;33.14;26.49;96951.58;107646;1268;32635;-83
2022/05/05 07:37:50;;;;;;;2.90;2.70;;;;;;;33.43;25.95;96955.00;107593;1271;35113;-82
2022/05/05 07:40:21;;;;;;;3.40;2.80;;;;;;;34.15;26.02;96953.39;107632;1268;28058;-81
2022/05/05 07:42:52;;;;;;;2.90;2.60;;;;;;;34.79;24.09;96954.84;107534;1269;54368;-81
2022/05/05 07:45:23;;;;;;;2.10;2.00;;;;;;;34.36;24.94;96953.90;107576;1268;37095;-82
2022/05/05 07:47:57;;;;;;;1.20;1.10;;;;;;;34.44;23.33;96952.86;107559;1268;48056;-81
2022/05/05 07:50:28;;;;;;;1.80;1.30;;;;;;;33.59;22.33;96947.69;107643;1268;37298;-82
2022/05/05 07:52:59;;;;;;;1.60;1.50;;;;;;;32.11;22.54;96949.60;107549;1271;34653;-80
2022/05/05 07:55:30;;;;;;;1.90;1.60;;;;;;;30.71;24.16;96952.08;107522;1271;49892;-82
2022/05/05 07:58:02;;;;;;;2.70;1.70;;;;;;;30.71;25.44;96950.06;107589;1268;31508;-82
2022/05/05 08:00:33;;;;;;;1.80;1.70;;;;;;;30.90;25.76;96950.54;107627;1268;41851;-82
2022/05/05 08:03:04;;;;;;;1.90;1.80;;;;;;;30.95;25.60;96953.63;107584;1268;34272;-82
2022/05/05 08:05:35;;;;;;;1.40;1.30;;;;;;;31.38;25.23;96961.50;107587;1268;35451;-81
2022/05/05 08:08:07;;;;;;;3.10;2.10;;;;;;;32.07;24.95;96961.31;107503;1269;64956;-81
2022/05/05 08:10:38;;;;;;;1.30;1.10;;;;;;;32.37;23.90;96966.27;107421;1270;42399;-82
2022/05/05 08:13:09;;;;;;;2.20;1.40;;;;;;;32.14;24.02;96964.03;107549;1269;36766;-82
2022/05/05 08:15:40;;;;;;;2.40;2.00;;;;;;;32.63;24.20;96960.52;107534;1268;36026;-82
2022/05/05 08:18:11;;;;;;;2.00;1.80;;;;;;;33.64;24.78;96961.83;107456;1271;37844;-82
2022/05/05 08:20:42;;;;;;;2.40;1.50;;;;;;;34.43;23.30;96964.61;107521;1268;45719;-82
2022/05/05 08:23:14;;;;;;;1.70;1.60;;;;;;;35.04;23.80;96961.63;107504;1271;44106;-82
2022/05/05 08:28:36;;;;;;;2.10;1.70;;;;;;;33.64;20.88;96955.30;107473;1271;44174;-82
2022/05/05 08:31:07;;;;;;;1.40;1.30;;;;;;;33.11;22.57;96959.23;107813;1268;41571;-82
2022/05/05 08:33:39;;;;;;;1.70;1.50;;;;;;;33.27;22.89;96958.65;107530;1268;32656;-80
2022/05/05 08:36:10;;;;;;;2.70;1.30;;;;;;;34.86;23.43;96957.86;107534;1268;34579;-82
2022/05/05 08:38:41;;;;;;;1.50;1.40;;;;;;;35.86;21.81;96956.95;107575;1268;46645;-80
2022/05/05 08:41:14;;;;;;;1.60;1.40;;;;;;;36.15;21.89;96955.98;107550;1268;37638;-82
2022/05/05 08:43:45;;;;;;;1.80;1.70;;;;;;;36.62;21.26;96953.13;107529;1268;36894;-80
2022/05/05 08:46:18;;;;;;;2.70;1.60;;;;;;;36.60;20.50;96949.27;107593;1268;41477;-83
2022/05/05 08:48:52;;;;;;;1.70;1.60;;;;;;;36.04;20.88;96947.36;107608;1268;33350;-82
2022/05/05 08:51:26;;;;;;;3.30;2.50;;;;;;;34.65;19.85;96945.65;107573;1268;44234;-82
2022/05/05 08:53:59;;;;;;;3.70;2.20;;;;;;;33.69;22.10;96949.98;107540;1268;45796;-83
2022/05/05 08:56:30;;;;;;;1.80;1.70;;;;;;;34.10;21.97;96947.21;107498;1271;35314;-82
2022/05/05 08:59:02;;;;;;;1.70;1.60;;;;;;;34.09;21.49;96952.59;107475;1271;33901;-82
2022/05/05 09:01:39;;;;;;;1.80;1.70;;;;;;;34.14;21.74;96950.66;107512;1271;32888;-82
2022/05/05 09:04:11;;;;;;;3.00;2.10;;;;;;;34.54;21.68;96946.91;107537;1268;42483;-82
2022/05/05 09:06:47;;;;;;;1.90;1.70;;;;;;;34.57;21.29;96945.10;107559;1268;33970;-82
2022/05/05 09:09:29;;;;;;;2.70;2.00;;;;;;;33.42;21.77;96950.30;107665;1268;36551;-82
2022/05/05 09:12:13;;;;;;;2.50;2.20;;;;;;;32.81;22.38;96953.33;107588;1268;45813;-81
2022/05/05 09:14:46;;;;;;;2.20;2.00;;;;;;;32.70;23.07;96954.28;107448;1271;41841;-82
2022/05/05 09:17:19;;;;;;;2.00;1.80;;;;;;;32.93;23.00;96952.06;107506;1268;37244;-82
2022/05/05 09:19:52;;;;;;;3.10;2.20;;;;;;;30.86;22.88;96956.05;107595;1268;42070;-81
2022/05/05 09:22:25;;;;;;;2.40;2.20;;;;;;;28.32;25.49;96961.36;107488;1271;40325;-81
2022/05/05 09:24:57;;;;;;;2.50;2.20;;;;;;;27.06;26.74;96965.92;107506;1268;41026;-82
2022/05/05 09:27:31;;;;;;;4.90;2.70;;;;;;;26.13;27.95;96963.13;107528;1270;35151;-81
2022/05/05 09:30:08;;;;;;;4.20;2.90;;;;;;;25.88;28.82;96967.17;107555;1268;36796;-81
2022/05/05 09:32:41;;;;;;;3.30;2.30;;;;;;;25.20;30.81;96952.84;107551;1268;41278;-82
2022/05/05 09:35:13;;;;;;;5.20;3.00;;;;;;;23.55;33.43;96984.15;107415;1271;53079;-82
2022/05/05 09:37:47;;;;;;;5.20;2.60;;;;;;;21.38;40.47;96988.73;107619;1268;35494;-82
2022/05/05 09:40:20;;;;;;;3.70;3.10;;;;;;;19.43;46.55;97015.23;107672;1268;33265;-82
2022/05/05 09:42:53;;;;;;;4.40;3.70;;;;;;;18.16;51.62;97032.91;107548;1268;42612;-80
2022/05/05 09:45:26;;;;;;;5.50;3.90;;;;;;;17.41;50.81;97030.54;107590;1268;34487;-81
2022/05/05 09:47:58;;;;;;;6.20;4.40;;;;;;;17.35;51.16;97027.02;107547;1268;41324;-80
2022/05/05 09:50:31;;;;;;;5.20;3.50;;;;;;;17.39;51.76;97023.79;107593;1267;36326;-81
2022/05/05 09:58:41;;;;;;;4.20;3.50;;;;;;;17.47;52.64;97006.71;107488;1271;42236;-81
2022/05/05 10:01:21;;;;;;;5.50;4.10;;;;;;;17.30;53.21;97005.83;107530;1270;52707;-81
2022/05/05 10:04:01;;;;;;;7.40;4.90;;;;;;;17.00;55.11;97005.53;107599;1268;43173;-80
2022/05/05 10:06:34;;;;;;;8.00;5.30;;;;;;;16.80;55.72;97009.65;107539;1268;38306;-81
2022/05/05 10:09:07;;;;;;;5.60;4.50;;;;;;;16.76;56.90;97009.96;107553;1268;32849;-81
2022/05/05 10:11:38;;;;;;;6.10;4.80;;;;;;;16.87;57.52;97008.92;107519;1266;36660;-81
2022/05/05 10:14:10;;;;;;;6.10;4.80;;;;;;;17.05;58.59;97011.60;107564;1268;37076;-81
2022/05/05 10:16:43;;;;;;;6.50;4.80;;;;;;;17.22;58.19;97008.77;107582;1268;43943;-81
2022/05/05 10:19:15;;;;;;;7.80;4.90;;;;;;;17.75;58.55;97009.70;107606;1270;41155;-81
2022/05/05 10:21:54;;;;;;;5.00;4.00;;;;;;;18.48;57.62;97012.67;107533;1268;41780;-81
2022/05/05 10:24:31;;;;;;;6.90;4.60;;;;;;;19.01;56.55;97006.23;107583;1268;36503;-81
2022/05/05 10:27:04;;;;;;;5.70;4.60;;;;;;;19.49;55.90;97003.43;107491;1270;34085;-81
2022/05/05 10:29:39;;;;;;;6.50;4.00;;;;;;;20.00;54.56;96999.05;107478;1270;34940;-81
2022/05/05 10:32:13;;;;;;;5.80;3.40;;;;;;;20.14;53.84;96995.54;107522;1270;38992;-82
2022/05/05 10:34:47;;;;;;;3.70;2.90;;;;;;;20.67;53.09;96995.20;107554;1268;38573;-82
2022/05/05 10:37:22;;;;;;;4.00;2.60;;;;;;;21.17;50.68;96990.81;107669;1268;34069;-82
2022/05/05 10:40:03;;;;;;;4.20;3.40;;;;;;;21.51;49.99;96982.88;107591;1268;37434;-81
2022/05/05 10:42:40;;;;;;;4.20;3.10;;;;;;;21.63;49.03;96979.84;107570;1268;35359;-82
2022/05/05 10:45:19;;;;;;;3.40;3.10;;;;;;;21.87;48.52;96978.78;107515;1268;41876;-82
2022/05/05 10:48:29;;;;;;;3.50;2.80;;;;;;;22.02;47.39;96977.43;107611;1268;39832;-82
2022/05/05 10:51:16;;;;;;;3.00;2.60;;;;;;;22.09;46.44;96977.41;107511;1268;35387;-83
2022/05/05 10:53:47;;;;;;;3.60;2.70;;;;;;;22.14;45.24;96976.02;107638;1268;32799;-83
2022/05/05 10:56:32;;;;;;;2.80;2.40;;;;;;;22.14;44.75;96978.93;107708;1268;31867;-82
2022/05/05 10:59:11;;;;;;;3.30;3.00;;;;;;;21.87;43.84;96979.60;107502;1268;40492;-82
2022/05/05 11:02:18;;;;;;;3.10;2.80;;;;;;;21.53;44.01;96976.02;107497;1270;46438;-82
2022/05/05 11:04:51;;;;;;;6.00;3.60;;;;;;;20.98;43.40;96979.75;107374;1270;34896;-82
2022/05/05 11:07:36;;;;;;;5.50;3.10;;;;;;;20.59;43.48;96981.53;107531;1270;35121;-81
2022/05/05 11:10:46;;;;;;;6.10;3.00;;;;;;;20.33;44.16;96981.92;107461;1270;40184;-82
2022/05/05 11:13:37;;;;;;;5.50;3.50;;;;;;;20.06;44.61;96980.66;107554;1270;33762;-82
2022/05/05 11:22:19;;;;;;;4.50;3.20;;;;;;;19.59;44.23;96992.92;107629;1268;40939;-82
2022/05/05 11:24:52;;;;;;;3.30;2.70;;;;;;;19.44;45.54;96993.02;107543;1270;43923;-82
2022/05/05 11:27:26;;;;;;;5.60;3.20;;;;;;;19.09;45.89;97004.30;107620;1268;35979;-81
2022/05/05 11:29:59;;;;;;;5.10;3.30;;;;;;;18.62;46.51;97007.76;107570;1267;47543;-82
2022/05/05 11:32:33;;;;;;;4.90;3.20;;;;;;;18.30;47.70;97011.16;107536;1268;40974;-81
2022/05/05 11:35:05;;;;;;;4.50;3.70;;;;;;;18.03;49.42;97012.18;107663;1268;33065;-81
2022/05/05 11:37:36;;;;;;;4.80;3.70;;;;;;;17.71;50.80;97015.51;107482;1270;44049;-82
2022/05/05 11:40:13;;;;;;;5.60;3.80;;;;;;;17.50;51.80;97027.69;107586;1268;35343;-81
2022/05/05 11:45:37;;;;;;;6.50;3.30;;;;;;;17.23;54.22;97055.70;107469;1268;42497;-82
2022/05/05 11:48:19;;;;;;;4.90;3.60;;;;;;;16.86;54.54;97051.86;107508;1268;40636;-81
2022/05/05 11:50:50;;;;;;;4.10;3.10;;;;;;;16.53;55.72;97051.16;107593;1268;46702;-82
2022/05/05 11:53:22;;;;;;;5.20;3.50;;;;;;;16.26;56.59;97044.21;107579;1268;43436;-82
2022/05/05 11:55:55;;;;;;;4.10;3.40;;;;;;;15.95;60.27;97040.48;107502;1270;38995;-80
2022/05/05 12:01:41;;;;;;;5.10;2.70;;;;;;;14.94;68.40;97040.70;107504;1268;57401;-82
2022/05/05 12:04:14;;;;;;;7.10;3.70;;;;;;;14.54;69.04;97039.56;107455;1270;52974;-81
2022/05/05 12:06:45;;;;;;;4.50;3.30;;;;;;;14.33;68.40;97040.73;107463;1270;45250;-81
2022/05/05 12:09:16;;;;;;;4.90;3.20;;;;;;;14.21;67.98;97040.81;107514;1268;53200;-81
2022/05/05 12:11:48;;;;;;;6.20;3.40;;;;;;;14.19;68.61;97032.63;107629;1268;47479;-80
2022/05/05 12:14:22;;;;;;;5.60;3.20;;;;;;;14.18;68.22;97038.03;107618;1268;52977;-81
2022/05/05 12:16:54;;;;;;;6.20;3.30;;;;;;;14.18;68.12;97026.83;107499;1268;42880;-80
2022/05/05 12:19:25;;;;;;;3.40;3.10;;;;;;;14.23;67.82;97023.34;107499;1270;34520;-80
2022/05/05 12:21:58;;;;;;;4.60;3.30;;;;;;;14.30;67.62;97014.21;107530;1268;48363;-80
2022/05/05 12:24:31;;;;;;;4.00;3.40;;;;;;;14.45;68.10;97006.80;107573;1267;39674;-80
2022/05/05 12:27:11;;;;;;;5.60;3.40;;;;;;;14.51;68.72;96992.46;107595;1268;39319;-81